Time;durP1;ratioP1;P1;durP2;ratioP2;P2;SDS_P1;SDS_P2;PMS_P1;PMS_P2;Temp;Humidity;BMP_temperature;BMP_pressure;BME280_temperature;BME280_humidity;BME280_pressure;Samples;Min_cycle;Max_cycle;Signal;HPM_P1;HPM_P2
2024/01/10 00:02:19;;;;;;;11.40;5.63;;;;;;;;;;4949972;28;20051;-67
2024/01/10 00:04:46;;;;;;;14.65;5.82;;;;;;;;;;4954815;28;20491;-67
2024/01/10 00:07:13;;;;;;;14.35;5.88;;;;;;;;;;4953203;28;20061;-67
2024/01/10 00:09:41;;;;;;;11.40;6.07;;;;;;;;;;4932728;29;20059;-67
2024/01/10 00:12:10;;;;;;;12.70;6.20;;;;;;;;;;4948444;29;20055;-67
2024/01/10 00:14:37;;;;;;;13.93;6.07;;;;;;;;;;4931298;29;20047;-67
2024/01/10 00:17:04;;;;;;;13.73;6.43;;;;;;;;;;4950291;28;20074;-69
2024/01/10 00:19:32;;;;;;;12.95;6.20;;;;;;;;;;4952464;28;20410;-67
2024/01/10 00:21:59;;;;;;;13.35;6.32;;;;;;;;;;4949249;28;20051;-66
2024/01/10 00:24:26;;;;;;;10.73;5.65;;;;;;;;;;4934951;29;20418;-67
2024/01/10 00:26:53;;;;;;;11.55;5.93;;;;;;;;;;4948774;29;20055;-66
2024/01/10 00:29:22;;;;;;;12.32;6.18;;;;;;;;;;4949614;28;20054;-67
2024/01/10 00:31:51;;;;;;;11.48;6.05;;;;;;;;;;4930106;29;20051;-67
2024/01/10 00:34:18;;;;;;;16.08;6.20;;;;;;;;;;4950655;29;20039;-67
2024/01/10 00:36:45;;;;;;;13.70;6.35;;;;;;;;;;4951462;28;20491;-67
2024/01/10 00:39:13;;;;;;;14.73;6.65;;;;;;;;;;4953146;28;20059;-69
2024/01/10 00:41:40;;;;;;;13.95;6.60;;;;;;;;;;4952016;28;20051;-67
2024/01/10 00:44:08;;;;;;;15.23;6.45;;;;;;;;;;4957164;28;20050;-67
2024/01/10 00:46:36;;;;;;;13.63;6.85;;;;;;;;;;4962720;28;20494;-67
2024/01/10 00:49:04;;;;;;;13.32;6.35;;;;;;;;;;4969621;28;20063;-67
2024/01/10 00:51:31;;;;;;;13.98;6.72;;;;;;;;;;4971623;28;20051;-67
2024/01/10 00:53:58;;;;;;;15.88;6.78;;;;;;;;;;4972040;28;20063;-67
2024/01/10 00:56:25;;;;;;;13.20;7.45;;;;;;;;;;4972293;28;20058;-67
2024/01/10 00:58:57;;;;;;;17.65;7.78;;;;;;;;;;4971788;28;20109;-67
2024/01/10 01:01:25;;;;;;;14.57;7.53;;;;;;;;;;4972027;28;20082;-67
2024/01/10 01:03:54;;;;;;;18.70;8.00;;;;;;;;;;4972017;28;20055;-67
2024/01/10 01:06:21;;;;;;;15.23;7.60;;;;;;;;;;4968744;28;20130;-67
2024/01/10 01:08:49;;;;;;;17.05;8.57;;;;;;;;;;4971199;28;20057;-67
2024/01/10 01:11:16;;;;;;;13.43;7.40;;;;;;;;;;4971322;28;20038;-67
2024/01/10 01:13:43;;;;;;;19.10;8.32;;;;;;;;;;4975005;28;20046;-68
2024/01/10 01:16:12;;;;;;;17.70;7.93;;;;;;;;;;4972746;28;20066;-67
2024/01/10 01:18:39;;;;;;;17.65;8.88;;;;;;;;;;4970184;28;20050;-67
2024/01/10 01:21:07;;;;;;;19.60;9.27;;;;;;;;;;4971528;28;20085;-67
2024/01/10 01:23:35;;;;;;;18.88;8.98;;;;;;;;;;4970505;28;20517;-67
2024/01/10 01:26:03;;;;;;;20.80;9.18;;;;;;;;;;4970829;28;20058;-67
2024/01/10 01:28:31;;;;;;;17.67;8.95;;;;;;;;;;4969296;28;20066;-67
2024/01/10 01:30:58;;;;;;;21.52;9.63;;;;;;;;;;4970018;28;20667;-67
2024/01/10 01:33:26;;;;;;;21.73;9.68;;;;;;;;;;4969945;28;20047;-67
2024/01/10 01:35:54;;;;;;;23.88;9.95;;;;;;;;;;4971686;28;20641;-67
2024/01/10 01:38:22;;;;;;;22.88;9.55;;;;;;;;;;4971381;28;20058;-67
2024/01/10 01:40:49;;;;;;;19.58;9.40;;;;;;;;;;4971412;28;20073;-67
2024/01/10 01:43:20;;;;;;;20.30;9.25;;;;;;;;;;4971348;28;20053;-67
2024/01/10 01:45:47;;;;;;;21.65;9.95;;;;;;;;;;4966666;28;20055;-67
2024/01/10 01:48:15;;;;;;;24.45;10.32;;;;;;;;;;4970816;28;20057;-67
2024/01/10 01:50:42;;;;;;;18.92;9.48;;;;;;;;;;4970590;28;20101;-67
2024/01/10 01:53:10;;;;;;;18.85;9.75;;;;;;;;;;4972266;28;20175;-67
2024/01/10 01:55:38;;;;;;;20.67;10.02;;;;;;;;;;4971961;28;20050;-67
2024/01/10 01:58:06;;;;;;;24.35;9.80;;;;;;;;;;4971700;28;20119;-67
2024/01/10 02:00:33;;;;;;;18.77;9.18;;;;;;;;;;4970622;28;20494;-67
2024/01/10 02:03:01;;;;;;;19.67;9.38;;;;;;;;;;4969854;28;20494;-67
2024/01/10 02:05:28;;;;;;;19.48;8.98;;;;;;;;;;4972293;28;20047;-67
2024/01/10 02:07:56;;;;;;;22.42;10.57;;;;;;;;;;4965938;28;20178;-67
2024/01/10 02:10:23;;;;;;;19.23;9.25;;;;;;;;;;4972144;28;20568;-67
2024/01/10 02:12:51;;;;;;;17.60;8.65;;;;;;;;;;4970529;28;20039;-67
2024/01/10 02:15:19;;;;;;;17.52;9.05;;;;;;;;;;4970576;28;20061;-67
2024/01/10 02:17:47;;;;;;;16.38;8.90;;;;;;;;;;4971001;28;20051;-68
2024/01/10 02:20:16;;;;;;;19.27;9.23;;;;;;;;;;4971145;28;20059;-67
2024/01/10 02:22:43;;;;;;;16.85;8.55;;;;;;;;;;4971376;28;20514;-68
2024/01/10 02:25:12;;;;;;;16.52;8.98;;;;;;;;;;4971267;28;20489;-67
2024/01/10 02:27:40;;;;;;;19.17;9.32;;;;;;;;;;4971214;28;20616;-67
2024/01/10 02:30:08;;;;;;;18.73;9.55;;;;;;;;;;4966641;28;20046;-67
2024/01/10 02:32:35;;;;;;;19.90;9.65;;;;;;;;;;4971704;28;20498;-67
2024/01/10 02:35:03;;;;;;;22.85;9.30;;;;;;;;;;4970751;28;20544;-67
2024/01/10 02:37:30;;;;;;;20.20;9.70;;;;;;;;;;4970613;28;20050;-67
2024/01/10 02:39:57;;;;;;;19.02;9.65;;;;;;;;;;4970609;28;20482;-67
2024/01/10 02:42:26;;;;;;;19.10;9.98;;;;;;;;;;4970383;28;20047;-67
2024/01/10 02:44:53;;;;;;;22.08;9.50;;;;;;;;;;4970712;28;20062;-68
2024/01/10 02:47:20;;;;;;;19.80;9.13;;;;;;;;;;4966245;28;20062;-67
2024/01/10 02:49:47;;;;;;;23.13;10.18;;;;;;;;;;4965911;28;20054;-67
2024/01/10 02:52:15;;;;;;;21.35;9.63;;;;;;;;;;4967482;28;20046;-68
2024/01/10 02:54:42;;;;;;;21.77;10.32;;;;;;;;;;4968868;28;20514;-67
2024/01/10 02:57:09;;;;;;;23.30;10.73;;;;;;;;;;4971034;28;20501;-67
2024/01/10 02:59:38;;;;;;;22.02;10.20;;;;;;;;;;4966532;28;20437;-67
2024/01/10 03:02:05;;;;;;;20.95;10.77;;;;;;;;;;4970077;28;20051;-67
2024/01/10 03:04:32;;;;;;;24.15;11.07;;;;;;;;;;4968376;28;20429;-67
2024/01/10 03:07:00;;;;;;;21.63;10.80;;;;;;;;;;4970594;28;20043;-67
2024/01/10 03:09:27;;;;;;;22.63;10.98;;;;;;;;;;4969504;28;20062;-67
2024/01/10 03:11:54;;;;;;;19.63;9.98;;;;;;;;;;4967075;28;20169;-67
2024/01/10 03:14:22;;;;;;;22.58;10.68;;;;;;;;;;4970093;28;20046;-67
2024/01/10 03:16:50;;;;;;;20.77;10.40;;;;;;;;;;4968874;28;20054;-67
2024/01/10 03:19:18;;;;;;;22.35;10.75;;;;;;;;;;4968082;28;20047;-67
2024/01/10 03:21:44;;;;;;;23.20;11.00;;;;;;;;;;4969788;28;20053;-68
2024/01/10 03:24:11;;;;;;;20.80;10.07;;;;;;;;;;4967467;28;20053;-67
2024/01/10 03:26:38;;;;;;;22.60;10.70;;;;;;;;;;4960973;28;20458;-67
2024/01/10 03:29:06;;;;;;;23.63;11.02;;;;;;;;;;4968091;28;20054;-67
2024/01/10 03:31:33;;;;;;;19.88;10.07;;;;;;;;;;4968854;28;20057;-67
2024/01/10 03:34:01;;;;;;;22.92;9.93;;;;;;;;;;4967502;28;20054;-67
2024/01/10 03:36:29;;;;;;;21.85;10.85;;;;;;;;;;4969006;28;20057;-67
2024/01/10 03:38:56;;;;;;;21.70;9.63;;;;;;;;;;4969173;28;20065;-67
2024/01/10 03:41:23;;;;;;;19.75;9.75;;;;;;;;;;4968747;28;20046;-67
2024/01/10 03:43:51;;;;;;;20.00;9.10;;;;;;;;;;4968697;28;20082;-67
2024/01/10 03:46:19;;;;;;;19.83;9.43;;;;;;;;;;4970445;28;20075;-67
2024/01/10 03:48:48;;;;;;;22.98;9.52;;;;;;;;;;4968923;28;20047;-67
2024/01/10 03:51:17;;;;;;;17.88;8.60;;;;;;;;;;4970300;28;20055;-67
2024/01/10 03:53:45;;;;;;;18.40;8.25;;;;;;;;;;4965125;28;20051;-67
2024/01/10 03:56:13;;;;;;;16.35;7.90;;;;;;;;;;4969206;28;20054;-67
2024/01/10 03:58:40;;;;;;;14.80;7.43;;;;;;;;;;4969309;28;20077;-67
2024/01/10 04:01:08;;;;;;;16.05;7.40;;;;;;;;;;4968595;28;20050;-67
2024/01/10 04:03:35;;;;;;;14.63;8.05;;;;;;;;;;4967188;28;20496;-67
2024/01/10 04:06:03;;;;;;;17.45;8.18;;;;;;;;;;4967024;28;20087;-67
2024/01/10 04:08:31;;;;;;;16.60;8.02;;;;;;;;;;4968122;28;20050;-67
2024/01/10 04:10:59;;;;;;;14.30;6.97;;;;;;;;;;4967431;28;20061;-67
2024/01/10 04:13:27;;;;;;;15.38;7.65;;;;;;;;;;4967744;28;20054;-67
2024/01/10 04:15:54;;;;;;;16.73;7.68;;;;;;;;;;4965789;28;20161;-67
2024/01/10 04:18:21;;;;;;;15.40;7.55;;;;;;;;;;4968916;28;20058;-67
2024/01/10 04:20:49;;;;;;;16.35;7.55;;;;;;;;;;4968463;28;20043;-66
2024/01/10 04:23:16;;;;;;;15.30;7.47;;;;;;;;;;4972666;28;20046;-67
2024/01/10 04:25:44;;;;;;;17.00;7.22;;;;;;;;;;4972801;28;20055;-68
2024/01/10 04:28:12;;;;;;;14.38;7.15;;;;;;;;;;4972082;28;20055;-68
2024/01/10 04:30:39;;;;;;;16.63;7.45;;;;;;;;;;4970126;28;20404;-67
2024/01/10 04:33:06;;;;;;;12.60;6.90;;;;;;;;;;4967088;28;20059;-67
2024/01/10 04:35:33;;;;;;;16.73;7.55;;;;;;;;;;4965280;28;20063;-67
2024/01/10 04:38:01;;;;;;;16.63;7.18;;;;;;;;;;4972296;28;20046;-67
2024/01/10 04:40:28;;;;;;;13.88;7.22;;;;;;;;;;4966077;28;20051;-66
2024/01/10 04:42:56;;;;;;;14.80;7.30;;;;;;;;;;4968492;28;20069;-67
2024/01/10 04:45:24;;;;;;;14.63;7.07;;;;;;;;;;4970589;28;20059;-67
2024/01/10 04:47:51;;;;;;;15.90;7.45;;;;;;;;;;4971682;28;20065;-67
2024/01/10 04:50:18;;;;;;;17.70;7.32;;;;;;;;;;4972044;28;20047;-67
2024/01/10 04:52:45;;;;;;;16.15;7.40;;;;;;;;;;4967652;28;20046;-67
2024/01/10 04:55:13;;;;;;;17.83;7.53;;;;;;;;;;4972248;28;20050;-67
2024/01/10 04:57:40;;;;;;;17.15;8.13;;;;;;;;;;4971489;28;20091;-67
2024/01/10 05:00:10;;;;;;;15.88;7.90;;;;;;;;;;4967314;28;20050;-67
2024/01/10 05:02:37;;;;;;;18.50;7.95;;;;;;;;;;4971391;28;20081;-67
2024/01/10 05:05:04;;;;;;;16.42;8.38;;;;;;;;;;4972721;28;20050;-67
2024/01/10 05:07:32;;;;;;;18.17;8.13;;;;;;;;;;4972523;28;20079;-68
2024/01/10 05:09:59;;;;;;;21.27;9.35;;;;;;;;;;4970411;28;20054;-68
2024/01/10 05:12:26;;;;;;;17.70;8.43;;;;;;;;;;4971813;28;20047;-67
2024/01/10 05:14:54;;;;;;;24.45;9.95;;;;;;;;;;4969098;28;20055;-67
2024/01/10 05:17:22;;;;;;;17.25;8.68;;;;;;;;;;4972245;28;20392;-67
2024/01/10 05:19:50;;;;;;;21.58;9.73;;;;;;;;;;4969005;28;20089;-67
2024/01/10 05:22:17;;;;;;;18.08;8.57;;;;;;;;;;4972986;28;20055;-67
2024/01/10 05:24:45;;;;;;;20.23;9.05;;;;;;;;;;4970303;28;20043;-67
2024/01/10 05:27:12;;;;;;;19.13;9.23;;;;;;;;;;4972472;28;20116;-67
2024/01/10 05:29:39;;;;;;;19.83;8.57;;;;;;;;;;4956174;28;20454;-67
2024/01/10 05:32:07;;;;;;;20.45;9.18;;;;;;;;;;4967974;28;20063;-67
2024/01/10 05:34:35;;;;;;;16.90;9.13;;;;;;;;;;4962079;28;20039;-67
2024/01/10 05:37:03;;;;;;;19.73;9.52;;;;;;;;;;4970739;28;20043;-67
2024/01/10 05:39:30;;;;;;;21.27;9.88;;;;;;;;;;4971601;28;20126;-67
2024/01/10 05:41:57;;;;;;;19.13;9.80;;;;;;;;;;4971072;28;20062;-67
2024/01/10 05:44:25;;;;;;;19.33;9.30;;;;;;;;;;4965498;28;20078;-67
2024/01/10 05:46:52;;;;;;;22.17;10.38;;;;;;;;;;4969419;28;20053;-68
2024/01/10 05:49:19;;;;;;;20.60;9.57;;;;;;;;;;4970253;28;20051;-67
2024/01/10 05:51:48;;;;;;;20.08;9.70;;;;;;;;;;4966707;28;20505;-67
2024/01/10 05:54:17;;;;;;;18.35;9.82;;;;;;;;;;4972671;28;20510;-67
2024/01/10 05:56:44;;;;;;;22.30;9.55;;;;;;;;;;4963961;28;20059;-68
2024/01/10 05:59:12;;;;;;;19.13;9.23;;;;;;;;;;4970974;28;20047;-67
2024/01/10 06:01:39;;;;;;;41.58;24.05;;;;;;;;;;4961320;28;20062;-66
2024/01/10 06:04:06;;;;;;;18.02;9.38;;;;;;;;;;4969982;28;20060;-68
2024/01/10 06:06:34;;;;;;;19.50;9.25;;;;;;;;;;4969322;28;20059;-67
2024/01/10 06:09:03;;;;;;;19.52;9.45;;;;;;;;;;4970902;28;20118;-67
2024/01/10 06:11:30;;;;;;;19.80;9.98;;;;;;;;;;4968171;28;20042;-68
2024/01/10 06:13:58;;;;;;;22.98;9.38;;;;;;;;;;4961273;28;20043;-68
2024/01/10 06:16:25;;;;;;;22.75;9.93;;;;;;;;;;4964978;28;20050;-67
2024/01/10 06:18:52;;;;;;;17.95;9.25;;;;;;;;;;4963012;28;20475;-67
2024/01/10 06:21:20;;;;;;;21.17;10.40;;;;;;;;;;4962407;28;20065;-68
2024/01/10 06:23:47;;;;;;;22.83;9.63;;;;;;;;;;4968847;28;20062;-68
2024/01/10 06:26:16;;;;;;;20.13;9.90;;;;;;;;;;4968967;28;20105;-67
2024/01/10 06:28:43;;;;;;;20.05;9.68;;;;;;;;;;4966863;28;20043;-68
2024/01/10 06:31:11;;;;;;;21.35;9.95;;;;;;;;;;4969365;28;20055;-67
2024/01/10 06:33:38;;;;;;;20.23;10.38;;;;;;;;;;4968798;28;20681;-67
2024/01/10 06:36:06;;;;;;;23.45;9.50;;;;;;;;;;4964812;28;20070;-68
2024/01/10 06:38:33;;;;;;;19.63;9.38;;;;;;;;;;4969812;28;20132;-68
2024/01/10 06:41:00;;;;;;;19.80;10.10;;;;;;;;;;4970909;28;20055;-68
2024/01/10 06:43:29;;;;;;;20.92;10.15;;;;;;;;;;4968277;28;20490;-68
2024/01/10 06:45:57;;;;;;;16.83;9.88;;;;;;;;;;4967698;28;20063;-68
2024/01/10 06:48:24;;;;;;;23.10;11.05;;;;;;;;;;4969358;28;20047;-68
2024/01/10 06:50:51;;;;;;;20.95;10.10;;;;;;;;;;4965721;28;20050;-68
2024/01/10 06:53:18;;;;;;;20.50;10.35;;;;;;;;;;4968129;28;20394;-68
2024/01/10 06:55:46;;;;;;;21.95;10.60;;;;;;;;;;4969636;28;20059;-68
2024/01/10 06:58:13;;;;;;;20.10;10.25;;;;;;;;;;4969733;28;20070;-68
2024/01/10 07:00:41;;;;;;;18.88;9.73;;;;;;;;;;4970508;28;20062;-68
2024/01/10 07:03:09;;;;;;;22.15;9.70;;;;;;;;;;4970120;28;20053;-68
2024/01/10 07:05:36;;;;;;;18.20;9.65;;;;;;;;;;4964472;28;20414;-68
2024/01/10 07:08:03;;;;;;;19.38;10.23;;;;;;;;;;4975928;28;20055;-69
2024/01/10 07:10:31;;;;;;;20.52;9.40;;;;;;;;;;4970696;28;20046;-68
2024/01/10 07:12:58;;;;;;;17.67;9.00;;;;;;;;;;4969076;28;20142;-68
2024/01/10 07:15:26;;;;;;;21.27;9.40;;;;;;;;;;4969154;28;20055;-68
2024/01/10 07:17:54;;;;;;;17.08;8.80;;;;;;;;;;4968402;28;20051;-68
2024/01/10 07:20:23;;;;;;;19.45;9.05;;;;;;;;;;4969838;28;20058;-68
2024/01/10 07:22:51;;;;;;;16.80;8.63;;;;;;;;;;4970209;28;20063;-68
2024/01/10 07:25:18;;;;;;;19.70;9.23;;;;;;;;;;4971957;28;20050;-68
2024/01/10 07:27:45;;;;;;;17.10;9.25;;;;;;;;;;4966944;28;20066;-68
2024/01/10 07:30:14;;;;;;;18.02;8.60;;;;;;;;;;4967847;28;20054;-68
2024/01/10 07:32:42;;;;;;;17.50;9.02;;;;;;;;;;4970577;28;20042;-68
2024/01/10 07:35:11;;;;;;;17.48;8.18;;;;;;;;;;4966021;28;20461;-68
2024/01/10 07:37:39;;;;;;;15.45;8.18;;;;;;;;;;4969231;28;20042;-68
2024/01/10 07:40:07;;;;;;;15.80;7.90;;;;;;;;;;4968667;28;20050;-68
2024/01/10 07:42:35;;;;;;;18.48;8.20;;;;;;;;;;4968456;28;20101;-68
2024/01/10 07:45:04;;;;;;;15.82;8.05;;;;;;;;;;4966620;28;20059;-67
2024/01/10 07:47:31;;;;;;;14.77;7.43;;;;;;;;;;4967007;28;20082;-67
2024/01/10 07:49:59;;;;;;;17.27;7.85;;;;;;;;;;4969557;28;20050;-67
2024/01/10 07:52:28;;;;;;;17.52;7.88;;;;;;;;;;4962152;28;20506;-68
2024/01/10 07:54:55;;;;;;;14.75;7.57;;;;;;;;;;4968176;28;20461;-68
2024/01/10 07:57:22;;;;;;;14.73;7.75;;;;;;;;;;4966686;28;20051;-67
2024/01/10 07:59:49;;;;;;;14.80;6.93;;;;;;;;;;4968534;28;20063;-67
2024/01/10 08:02:17;;;;;;;14.00;7.15;;;;;;;;;;4969475;28;20062;-67
2024/01/10 08:04:44;;;;;;;14.88;6.28;;;;;;;;;;4969551;28;20058;-67
2024/01/10 08:07:13;;;;;;;14.10;6.72;;;;;;;;;;4962978;28;20097;-67
2024/01/10 08:09:42;;;;;;;14.27;6.60;;;;;;;;;;4961606;28;20597;-67
2024/01/10 08:12:09;;;;;;;12.45;6.80;;;;;;;;;;4965128;28;20048;-67
2024/01/10 08:14:37;;;;;;;16.08;6.95;;;;;;;;;;4965924;28;20079;-67
2024/01/10 08:17:06;;;;;;;12.82;6.07;;;;;;;;;;4960175;28;20047;-67
2024/01/10 08:19:35;;;;;;;12.95;6.57;;;;;;;;;;4963111;28;20050;-67
2024/01/10 08:22:03;;;;;;;13.43;6.30;;;;;;;;;;4959720;28;20093;-67
2024/01/10 08:24:30;;;;;;;11.20;5.68;;;;;;;;;;4962900;28;20051;-68
2024/01/10 08:26:59;;;;;;;15.63;7.22;;;;;;;;;;4968447;28;20050;-67
2024/01/10 08:29:30;;;;;;;14.18;6.57;;;;;;;;;;4967581;28;20046;-67
2024/01/10 08:31:57;;;;;;;14.85;6.95;;;;;;;;;;4963005;28;20050;-68
2024/01/10 08:34:24;;;;;;;13.02;6.93;;;;;;;;;;4968933;28;20047;-67
2024/01/10 08:36:52;;;;;;;14.65;6.55;;;;;;;;;;4965009;28;20050;-67
2024/01/10 08:39:21;;;;;;;12.57;6.65;;;;;;;;;;4967369;28;20066;-67
2024/01/10 08:41:49;;;;;;;12.75;6.63;;;;;;;;;;4966948;28;20466;-67
2024/01/10 08:44:17;;;;;;;14.52;6.72;;;;;;;;;;4965924;28;20051;-67
2024/01/10 08:46:45;;;;;;;15.95;7.03;;;;;;;;;;4967204;28;20215;-68
2024/01/10 08:49:12;;;;;;;12.70;6.95;;;;;;;;;;4968585;28;20074;-67
2024/01/10 08:51:40;;;;;;;12.25;6.35;;;;;;;;;;4964891;28;20103;-67
2024/01/10 08:54:08;;;;;;;12.50;6.70;;;;;;;;;;4969585;28;20164;-67
2024/01/10 08:56:36;;;;;;;17.80;7.70;;;;;;;;;;4969330;28;20051;-67
2024/01/10 08:59:03;;;;;;;13.93;6.22;;;;;;;;;;4969885;28;20055;-67
2024/01/10 09:01:32;;;;;;;13.13;6.45;;;;;;;;;;4969465;28;20402;-67
2024/01/10 09:03:59;;;;;;;16.70;6.53;;;;;;;;;;4968283;28;20516;-67
2024/01/10 09:06:27;;;;;;;13.43;6.30;;;;;;;;;;4965852;28;20053;-67
2024/01/10 09:08:54;;;;;;;14.38;6.63;;;;;;;;;;4969480;28;20055;-67
2024/01/10 09:11:21;;;;;;;13.25;6.47;;;;;;;;;;4971186;28;20055;-68
2024/01/10 09:13:49;;;;;;;13.10;6.70;;;;;;;;;;4970514;28;20049;-67
2024/01/10 09:16:16;;;;;;;14.27;6.88;;;;;;;;;;4972748;28;20129;-68
2024/01/10 09:18:45;;;;;;;12.88;6.72;;;;;;;;;;4972114;28;20039;-68
2024/01/10 09:21:12;;;;;;;15.30;6.43;;;;;;;;;;4971783;28;20387;-67
2024/01/10 09:23:40;;;;;;;13.90;6.45;;;;;;;;;;4972332;28;20494;-68
2024/01/10 09:26:08;;;;;;;13.35;6.03;;;;;;;;;;4972391;28;20053;-67
2024/01/10 09:28:35;;;;;;;12.90;6.03;;;;;;;;;;4969965;28;20058;-68
2024/01/10 09:31:03;;;;;;;13.73;6.18;;;;;;;;;;4971479;28;21076;-67
2024/01/10 09:33:30;;;;;;;11.45;6.65;;;;;;;;;;4972337;28;20146;-68
2024/01/10 09:35:58;;;;;;;13.15;5.97;;;;;;;;;;4972856;28;20046;-68
2024/01/10 09:38:26;;;;;;;14.85;6.40;;;;;;;;;;4969436;28;20051;-68
2024/01/10 09:40:53;;;;;;;12.13;5.38;;;;;;;;;;4972093;28;20058;-67
2024/01/10 09:43:21;;;;;;;15.07;6.47;;;;;;;;;;4972153;28;20149;-67
2024/01/10 09:45:50;;;;;;;15.63;6.88;;;;;;;;;;4971979;28;20516;-67
2024/01/10 09:48:17;;;;;;;14.13;6.47;;;;;;;;;;4971176;28;20716;-68
2024/01/10 09:50:44;;;;;;;13.93;6.35;;;;;;;;;;4972414;28;20046;-68
2024/01/10 09:53:22;;;;;;;15.35;6.38;;;;;;;;;;4971758;28;20422;-67
2024/01/10 09:55:49;;;;;;;13.45;6.72;;;;;;;;;;4971803;28;20158;-67
2024/01/10 09:58:16;;;;;;;15.77;7.20;;;;;;;;;;4968863;28;20475;-68
2024/01/10 10:00:44;;;;;;;14.00;6.47;;;;;;;;;;4967741;28;20066;-68
2024/01/10 10:03:12;;;;;;;14.43;6.93;;;;;;;;;;4971472;28;20057;-67
2024/01/10 10:05:41;;;;;;;18.42;6.88;;;;;;;;;;4972096;28;20458;-67
2024/01/10 10:08:09;;;;;;;13.23;5.90;;;;;;;;;;4971589;28;20090;-68
2024/01/10 10:10:42;;;;;;;15.95;6.63;;;;;;;;;;4972398;28;20038;-68
2024/01/10 10:13:11;;;;;;;12.77;5.28;;;;;;;;;;4966843;28;20450;-68
2024/01/10 10:15:38;;;;;;;14.00;6.07;;;;;;;;;;4971021;28;20521;-67
2024/01/10 10:18:06;;;;;;;11.75;5.57;;;;;;;;;;4971259;28;20058;-67
2024/01/10 10:20:35;;;;;;;13.48;6.05;;;;;;;;;;4971304;28;20402;-68
2024/01/10 10:23:03;;;;;;;12.75;5.28;;;;;;;;;;4971014;28;20051;-68
2024/01/10 10:25:32;;;;;;;9.93;4.68;;;;;;;;;;4970337;28;20097;-68
2024/01/10 10:28:01;;;;;;;11.68;4.72;;;;;;;;;;4967263;28;20065;-68
2024/01/10 10:30:29;;;;;;;11.27;4.97;;;;;;;;;;4969120;28;20506;-68
2024/01/10 10:32:56;;;;;;;10.88;4.55;;;;;;;;;;4971083;28;20051;-68
2024/01/10 10:35:24;;;;;;;10.32;4.75;;;;;;;;;;4969034;28;20054;-68
2024/01/10 10:37:53;;;;;;;9.00;3.83;;;;;;;;;;4960070;28;20062;-67
2024/01/10 10:40:21;;;;;;;11.98;4.88;;;;;;;;;;4965286;28;20597;-68
2024/01/10 10:42:50;;;;;;;9.40;4.13;;;;;;;;;;4971192;28;20066;-68
2024/01/10 10:45:19;;;;;;;9.05;4.25;;;;;;;;;;4968052;28;20502;-67
2024/01/10 10:47:49;;;;;;;8.90;3.85;;;;;;;;;;4969374;28;20455;-68
2024/01/10 10:50:22;;;;;;;9.88;4.53;;;;;;;;;;4965464;28;20058;-68
2024/01/10 10:52:49;;;;;;;8.90;3.88;;;;;;;;;;4964891;28;20470;-67
2024/01/10 10:55:17;;;;;;;9.23;4.03;;;;;;;;;;4971343;28;20470;-67
2024/01/10 10:57:47;;;;;;;9.32;4.35;;;;;;;;;;4969515;28;20058;-68
2024/01/10 11:00:16;;;;;;;10.73;4.50;;;;;;;;;;4970957;28;20051;-67
2024/01/10 11:02:44;;;;;;;9.00;4.22;;;;;;;;;;4967869;28;20051;-69
2024/01/10 11:05:12;;;;;;;9.20;4.15;;;;;;;;;;4969165;28;20053;-68
2024/01/10 11:07:39;;;;;;;9.90;4.80;;;;;;;;;;4968167;28;20053;-67
2024/01/10 11:10:11;;;;;;;9.05;4.38;;;;;;;;;;4968410;28;20057;-67
2024/01/10 11:12:56;;;;;;;8.40;4.00;;;;;;;;;;4973986;28;20070;-67
2024/01/10 11:15:31;;;;;;;9.88;4.15;;;;;;;;;;4969889;28;20057;-68
2024/01/10 11:18:11;;;;;;;13.13;4.90;;;;;;;;;;4969555;28;20062;-67
2024/01/10 11:20:55;;;;;;;12.00;5.25;;;;;;;;;;4968729;28;20050;-68
2024/01/10 11:23:22;;;;;;;;;;;;;;;;;;4967595;28;20077;-67
2024/01/10 11:25:50;;;;;;;10.38;4.75;;;;;;;;;;4967461;28;19930;-67
2024/01/10 11:28:18;;;;;;;10.63;4.70;;;;;;;;;;4969299;28;20047;-67
2024/01/10 11:30:53;;;;;;;12.13;4.70;;;;;;;;;;4966106;28;20141;-67
2024/01/10 11:33:23;;;;;;;9.38;4.45;;;;;;;;;;4968778;28;20059;-68
2024/01/10 11:36:11;;;;;;;11.98;4.38;;;;;;;;;;4969160;28;20054;-68
2024/01/10 11:39:02;;;;;;;9.27;4.55;;;;;;;;;;4965302;28;20057;-67
2024/01/10 11:41:29;;;;;;;10.95;4.60;;;;;;;;;;4966829;28;20054;-68
2024/01/10 11:44:17;;;;;;;9.80;4.60;;;;;;;;;;4967023;28;20065;-67
2024/01/10 11:46:45;;;;;;;11.45;4.78;;;;;;;;;;4968807;28;20454;-68
2024/01/10 11:49:15;;;;;;;9.90;4.57;;;;;;;;;;4969707;28;20054;-67
2024/01/10 11:51:43;;;;;;;10.02;4.55;;;;;;;;;;4968564;28;20055;-67
2024/01/10 11:54:10;;;;;;;10.55;4.20;;;;;;;;;;4970005;28;20055;-68
2024/01/10 11:56:39;;;;;;;10.98;4.68;;;;;;;;;;4961772;28;20075;-68
2024/01/10 11:59:10;;;;;;;10.25;4.35;;;;;;;;;;4969532;28;20055;-68
2024/01/10 12:01:37;;;;;;;10.38;4.25;;;;;;;;;;4965865;28;20050;-67
2024/01/10 12:04:05;;;;;;;10.70;3.70;;;;;;;;;;4968341;28;20038;-68
2024/01/10 12:06:34;;;;;;;12.75;4.53;;;;;;;;;;4966295;28;21401;-69
2024/01/10 12:09:07;;;;;;;9.45;3.72;;;;;;;;;;4973017;28;20516;-67
2024/01/10 12:11:35;;;;;;;9.40;4.00;;;;;;;;;;4970121;28;20090;-69
2024/01/10 12:14:02;;;;;;;10.20;4.65;;;;;;;;;;4969370;28;20054;-67
2024/01/10 12:16:29;;;;;;;10.85;4.90;;;;;;;;;;4969545;28;20053;-67
2024/01/10 12:18:57;;;;;;;11.70;4.10;;;;;;;;;;4968765;28;20051;-67
2024/01/10 12:21:24;;;;;;;9.07;3.70;;;;;;;;;;4966147;28;20053;-68
2024/01/10 12:23:53;;;;;;;11.30;4.20;;;;;;;;;;4968989;28;20061;-67
2024/01/10 12:26:20;;;;;;;9.10;3.83;;;;;;;;;;4968589;28;20517;-67
2024/01/10 12:28:58;;;;;;;10.70;4.45;;;;;;;;;;4967334;28;20054;-67
2024/01/10 12:31:25;;;;;;;9.15;3.83;;;;;;;;;;4963640;28;20130;-68
2024/01/10 12:33:53;;;;;;;8.85;3.60;;;;;;;;;;4963016;28;20067;-67
2024/01/10 12:36:20;;;;;;;10.25;4.30;;;;;;;;;;4969213;28;21854;-67
2024/01/10 12:38:48;;;;;;;10.52;4.53;;;;;;;;;;4958999;28;20106;-67
2024/01/10 12:41:18;;;;;;;8.02;3.53;;;;;;;;;;4956350;28;20494;-67
2024/01/10 12:43:45;;;;;;;9.63;4.90;;;;;;;;;;4969168;28;20050;-67
2024/01/10 12:46:13;;;;;;;10.68;4.70;;;;;;;;;;4972846;28;20050;-67
2024/01/10 12:48:42;;;;;;;9.38;3.58;;;;;;;;;;4972926;28;20060;-67
2024/01/10 12:51:09;;;;;;;11.30;4.03;;;;;;;;;;4970341;28;20051;-67
2024/01/10 12:53:37;;;;;;;7.80;3.22;;;;;;;;;;4967836;28;20047;-67
2024/01/10 12:56:04;;;;;;;9.68;3.90;;;;;;;;;;4963494;28;20133;-68
2024/01/10 12:58:34;;;;;;;11.45;4.38;;;;;;;;;;4972738;28;20050;-67
2024/01/10 13:01:03;;;;;;;12.00;4.25;;;;;;;;;;4966633;28;20058;-67
2024/01/10 13:03:30;;;;;;;9.65;3.80;;;;;;;;;;4973184;28;20062;-67
2024/01/10 13:05:58;;;;;;;9.20;3.80;;;;;;;;;;4972089;28;20051;-67
2024/01/10 13:08:25;;;;;;;11.00;4.40;;;;;;;;;;4971261;28;20426;-67
2024/01/10 13:10:53;;;;;;;11.35;4.85;;;;;;;;;;4972533;28;20050;-67
2024/01/10 13:13:21;;;;;;;11.77;4.18;;;;;;;;;;4970435;28;20411;-67
2024/01/10 13:15:50;;;;;;;10.35;4.45;;;;;;;;;;4972191;28;20046;-67
2024/01/10 13:18:18;;;;;;;11.65;4.63;;;;;;;;;;4972839;28;20542;-67
2024/01/10 13:20:47;;;;;;;9.55;4.20;;;;;;;;;;4971166;28;20549;-67
2024/01/10 13:23:15;;;;;;;11.07;3.92;;;;;;;;;;4973023;28;20054;-67
2024/01/10 13:25:42;;;;;;;11.15;4.18;;;;;;;;;;4970012;28;20042;-67
2024/01/10 13:28:11;;;;;;;9.68;4.07;;;;;;;;;;4970813;28;20051;-69
2024/01/10 13:30:42;;;;;;;9.75;3.90;;;;;;;;;;4968214;28;20137;-67
2024/01/10 13:33:11;;;;;;;10.48;4.10;;;;;;;;;;4968727;28;20113;-67
2024/01/10 13:35:39;;;;;;;11.35;4.80;;;;;;;;;;4970582;28;20066;-68
2024/01/10 13:38:06;;;;;;;10.43;4.00;;;;;;;;;;4969590;28;20450;-67
2024/01/10 13:40:34;;;;;;;11.93;4.63;;;;;;;;;;4970640;28;20050;-67
2024/01/10 13:43:03;;;;;;;10.80;4.07;;;;;;;;;;4971221;28;20055;-67
2024/01/10 13:45:30;;;;;;;9.15;3.65;;;;;;;;;;4968637;28;20125;-67
2024/01/10 13:47:58;;;;;;;11.70;3.78;;;;;;;;;;4968154;28;20637;-67
2024/01/10 13:50:28;;;;;;;13.93;4.35;;;;;;;;;;4970288;28;20058;-67
2024/01/10 13:52:55;;;;;;;11.10;3.60;;;;;;;;;;4967904;28;20061;-67
2024/01/10 13:55:23;;;;;;;10.30;4.00;;;;;;;;;;4972007;28;20043;-67
2024/01/10 13:57:51;;;;;;;11.48;3.53;;;;;;;;;;4970436;28;20622;-67
2024/01/10 14:00:18;;;;;;;9.10;3.33;;;;;;;;;;4972513;28;20054;-68
2024/01/10 14:02:45;;;;;;;7.80;3.72;;;;;;;;;;4972462;28;20568;-68
2024/01/10 14:05:13;;;;;;;9.73;3.60;;;;;;;;;;4969312;28;20038;-67
2024/01/10 14:07:44;;;;;;;9.13;3.53;;;;;;;;;;4969583;28;20050;-67
2024/01/10 14:10:12;;;;;;;9.73;3.97;;;;;;;;;;4969156;28;20154;-68
2024/01/10 14:12:40;;;;;;;11.02;3.65;;;;;;;;;;4971340;28;20051;-67
2024/01/10 14:15:08;;;;;;;11.70;4.72;;;;;;;;;;4970842;28;20055;-67
2024/01/10 14:17:36;;;;;;;20.17;6.68;;;;;;;;;;4969743;28;20051;-67
2024/01/10 14:20:03;;;;;;;9.65;4.15;;;;;;;;;;4971254;28;20054;-67
2024/01/10 14:22:31;;;;;;;9.52;4.40;;;;;;;;;;4971172;28;20043;-67
2024/01/10 14:24:59;;;;;;;14.63;5.07;;;;;;;;;;4970972;28;20047;-67
2024/01/10 14:27:26;;;;;;;10.55;4.70;;;;;;;;;;4971184;28;20482;-67
2024/01/10 14:29:54;;;;;;;12.73;5.47;;;;;;;;;;4968020;28;20046;-67
2024/01/10 14:32:21;;;;;;;10.20;4.47;;;;;;;;;;4970768;28;20043;-67
2024/01/10 14:34:48;;;;;;;14.05;4.80;;;;;;;;;;4971324;28;20057;-68
2024/01/10 14:37:15;;;;;;;8.93;4.05;;;;;;;;;;4968334;28;20054;-67